sensor_id;sensor_type;location;lat;lon;timestamp;temperature;humidity
44863;DHT22;30597;49.628;10.850;2023-01-26T00:00:57;17.90;47.10
44863;DHT22;30597;49.628;10.850;2023-01-26T00:03:24;17.90;47.00
44863;DHT22;30597;49.628;10.850;2023-01-26T00:05:50;17.90;47.10
44863;DHT22;30597;49.628;10.850;2023-01-26T00:08:16;17.80;46.90
44863;DHT22;30597;49.628;10.850;2023-01-26T00:10:42;17.90;47.30
44863;DHT22;30597;49.628;10.850;2023-01-26T00:13:16;17.90;47.10
44863;DHT22;30597;49.628;10.850;2023-01-26T00:15:42;17.80;47.20
44863;DHT22;30597;49.628;10.850;2023-01-26T00:18:08;17.80;47.10
44863;DHT22;30597;49.628;10.850;2023-01-26T00:20:34;17.80;47.20
44863;DHT22;30597;49.628;10.850;2023-01-26T00:22:59;17.80;47.20
44863;DHT22;30597;49.628;10.850;2023-01-26T00:25:25;17.70;47.00
44863;DHT22;30597;49.628;10.850;2023-01-26T00:27:51;17.80;47.00
44863;DHT22;30597;49.628;10.850;2023-01-26T00:30:16;17.70;47.70
44863;DHT22;30597;49.628;10.850;2023-01-26T00:32:42;17.70;47.10
44863;DHT22;30597;49.628;10.850;2023-01-26T00:35:08;17.70;47.20
44863;DHT22;30597;49.628;10.850;2023-01-26T00:37:34;17.70;47.00
44863;DHT22;30597;49.628;10.850;2023-01-26T00:39:59;17.70;47.10
44863;DHT22;30597;49.628;10.850;2023-01-26T00:42:25;17.60;46.90
44863;DHT22;30597;49.628;10.850;2023-01-26T00:44:50;17.70;47.10
44863;DHT22;30597;49.628;10.850;2023-01-26T00:47:17;17.60;47.00
44863;DHT22;30597;49.628;10.850;2023-01-26T00:49:43;17.60;47.00
44863;DHT22;30597;49.628;10.850;2023-01-26T00:52:10;17.60;47.10
44863;DHT22;30597;49.628;10.850;2023-01-26T00:54:36;17.60;47.20
44863;DHT22;30597;49.628;10.850;2023-01-26T00:57:02;17.60;47.00
44863;DHT22;30597;49.628;10.850;2023-01-26T00:59:27;17.60;47.00
44863;DHT22;30597;49.628;10.850;2023-01-26T01:01:57;17.60;47.10
44863;DHT22;30597;49.628;10.850;2023-01-26T01:04:24;17.50;47.20
44863;DHT22;30597;49.628;10.850;2023-01-26T01:06:50;17.50;47.00
44863;DHT22;30597;49.628;10.850;2023-01-26T01:09:16;17.50;47.10
44863;DHT22;30597;49.628;10.850;2023-01-26T01:11:41;17.50;47.00
44863;DHT22;30597;49.628;10.850;2023-01-26T01:14:08;17.50;47.10
44863;DHT22;30597;49.628;10.850;2023-01-26T01:16:34;17.50;47.20
44863;DHT22;30597;49.628;10.850;2023-01-26T01:19:00;17.50;47.00
44863;DHT22;30597;49.628;10.850;2023-01-26T01:21:26;17.50;46.90
44863;DHT22;30597;49.628;10.850;2023-01-26T01:23:51;17.50;47.10
44863;DHT22;30597;49.628;10.850;2023-01-26T01:26:17;17.40;47.10
44863;DHT22;30597;49.628;10.850;2023-01-26T01:28:43;17.50;47.10
44863;DHT22;30597;49.628;10.850;2023-01-26T01:31:11;17.50;47.30
44863;DHT22;30597;49.628;10.850;2023-01-26T01:33:37;17.40;47.10
44863;DHT22;30597;49.628;10.850;2023-01-26T01:36:10;17.40;47.10
44863;DHT22;30597;49.628;10.850;2023-01-26T01:38:36;17.40;47.20
44863;DHT22;30597;49.628;10.850;2023-01-26T01:41:01;17.30;47.00
44863;DHT22;30597;49.628;10.850;2023-01-26T01:43:28;17.40;47.10
44863;DHT22;30597;49.628;10.850;2023-01-26T01:45:54;17.30;47.10
44863;DHT22;30597;49.628;10.850;2023-01-26T01:48:30;17.40;47.30
44863;DHT22;30597;49.628;10.850;2023-01-26T01:51:04;17.30;47.20
44863;DHT22;30597;49.628;10.850;2023-01-26T01:53:34;17.30;47.20
44863;DHT22;30597;49.628;10.850;2023-01-26T01:56:06;17.30;47.30
44863;DHT22;30597;49.628;10.850;2023-01-26T01:58:37;17.30;47.30
44863;DHT22;30597;49.628;10.850;2023-01-26T02:01:04;17.20;47.30
44863;DHT22;30597;49.628;10.850;2023-01-26T02:03:31;17.20;47.80
44863;DHT22;30597;49.628;10.850;2023-01-26T02:08:38;17.20;47.10
44863;DHT22;30597;49.628;10.850;2023-01-26T02:11:15;17.20;47.30
44863;DHT22;30597;49.628;10.850;2023-01-26T02:13:43;17.20;47.30
44863;DHT22;30597;49.628;10.850;2023-01-26T02:16:10;17.20;47.20
44863;DHT22;30597;49.628;10.850;2023-01-26T02:18:37;17.20;47.10
44863;DHT22;30597;49.628;10.850;2023-01-26T02:21:09;17.10;47.20
44863;DHT22;30597;49.628;10.850;2023-01-26T02:26:36;17.20;47.30
44863;DHT22;30597;49.628;10.850;2023-01-26T02:29:05;17.10;47.20
44863;DHT22;30597;49.628;10.850;2023-01-26T02:31:31;17.10;47.30
44863;DHT22;30597;49.628;10.850;2023-01-26T02:33:57;17.10;47.20
44863;DHT22;30597;49.628;10.850;2023-01-26T02:36:29;17.00;47.00
44863;DHT22;30597;49.628;10.850;2023-01-26T02:39:17;17.00;47.20
44863;DHT22;30597;49.628;10.850;2023-01-26T02:41:50;17.00;47.50
44863;DHT22;30597;49.628;10.850;2023-01-26T02:44:37;16.90;47.50
44863;DHT22;30597;49.628;10.850;2023-01-26T02:47:14;16.90;47.40
44863;DHT22;30597;49.628;10.850;2023-01-26T02:49:44;16.90;47.50
44863;DHT22;30597;49.628;10.850;2023-01-26T02:52:21;16.90;47.40
44863;DHT22;30597;49.628;10.850;2023-01-26T02:54:47;16.90;47.50
44863;DHT22;30597;49.628;10.850;2023-01-26T02:57:32;16.90;47.40
44863;DHT22;30597;49.628;10.850;2023-01-26T03:00:01;16.80;47.30
44863;DHT22;30597;49.628;10.850;2023-01-26T03:02:27;16.90;47.50
44863;DHT22;30597;49.628;10.850;2023-01-26T03:04:53;16.80;47.20
44863;DHT22;30597;49.628;10.850;2023-01-26T03:07:21;16.80;47.30
44863;DHT22;30597;49.628;10.850;2023-01-26T03:09:56;16.90;47.30
44863;DHT22;30597;49.628;10.850;2023-01-26T03:12:25;16.90;47.40
44863;DHT22;30597;49.628;10.850;2023-01-26T03:14:51;16.80;47.40
44863;DHT22;30597;49.628;10.850;2023-01-26T03:17:37;16.90;47.50
44863;DHT22;30597;49.628;10.850;2023-01-26T03:20:04;16.90;47.50
44863;DHT22;30597;49.628;10.850;2023-01-26T03:22:50;16.80;47.30
44863;DHT22;30597;49.628;10.850;2023-01-26T03:25:39;16.80;47.40
44863;DHT22;30597;49.628;10.850;2023-01-26T03:28:24;16.80;47.30
44863;DHT22;30597;49.628;10.850;2023-01-26T03:30:53;16.70;47.20
44863;DHT22;30597;49.628;10.850;2023-01-26T03:33:20;16.80;47.30
44863;DHT22;30597;49.628;10.850;2023-01-26T03:35:50;16.70;47.20
44863;DHT22;30597;49.628;10.850;2023-01-26T03:38:17;16.80;47.50
44863;DHT22;30597;49.628;10.850;2023-01-26T03:40:43;16.80;47.40
44863;DHT22;30597;49.628;10.850;2023-01-26T03:43:31;16.70;47.10
44863;DHT22;30597;49.628;10.850;2023-01-26T03:46:23;16.70;47.20
44863;DHT22;30597;49.628;10.850;2023-01-26T03:49:08;16.70;47.20
44863;DHT22;30597;49.628;10.850;2023-01-26T03:51:53;16.70;47.90
44863;DHT22;30597;49.628;10.850;2023-01-26T03:54:38;16.70;47.30
44863;DHT22;30597;49.628;10.850;2023-01-26T03:57:50;16.70;47.30
44863;DHT22;30597;49.628;10.850;2023-01-26T04:00:16;16.60;47.40
44863;DHT22;30597;49.628;10.850;2023-01-26T04:02:42;16.60;47.20
44863;DHT22;30597;49.628;10.850;2023-01-26T04:05:28;16.60;47.30
44863;DHT22;30597;49.628;10.850;2023-01-26T04:08:15;16.60;47.40
44863;DHT22;30597;49.628;10.850;2023-01-26T04:10:55;16.60;47.30
44863;DHT22;30597;49.628;10.850;2023-01-26T04:13:22;16.60;47.50
44863;DHT22;30597;49.628;10.850;2023-01-26T04:16:08;16.60;47.30
44863;DHT22;30597;49.628;10.850;2023-01-26T04:18:53;16.60;47.30
44863;DHT22;30597;49.628;10.850;2023-01-26T04:21:38;16.60;47.30
44863;DHT22;30597;49.628;10.850;2023-01-26T04:24:06;16.50;47.20
44863;DHT22;30597;49.628;10.850;2023-01-26T04:26:42;16.60;47.30
44863;DHT22;30597;49.628;10.850;2023-01-26T04:29:12;16.60;47.20
44863;DHT22;30597;49.628;10.850;2023-01-26T04:31:38;16.60;47.30
44863;DHT22;30597;49.628;10.850;2023-01-26T04:34:05;16.70;47.40
44863;DHT22;30597;49.628;10.850;2023-01-26T04:36:31;16.80;47.30
44863;DHT22;30597;49.628;10.850;2023-01-26T04:38:58;16.80;47.10
44863;DHT22;30597;49.628;10.850;2023-01-26T04:41:25;17.00;47.00
44863;DHT22;30597;49.628;10.850;2023-01-26T04:43:53;17.00;46.90
44863;DHT22;30597;49.628;10.850;2023-01-26T04:46:19;17.10;46.50
44863;DHT22;30597;49.628;10.850;2023-01-26T04:48:50;17.20;46.70
44863;DHT22;30597;49.628;10.850;2023-01-26T04:51:18;17.30;46.40
44863;DHT22;30597;49.628;10.850;2023-01-26T04:53:48;17.30;46.50
44863;DHT22;30597;49.628;10.850;2023-01-26T04:56:26;17.30;46.40
44863;DHT22;30597;49.628;10.850;2023-01-26T04:58:53;17.40;46.40
44863;DHT22;30597;49.628;10.850;2023-01-26T05:01:22;17.40;46.30
44863;DHT22;30597;49.628;10.850;2023-01-26T05:03:48;17.40;46.10
44863;DHT22;30597;49.628;10.850;2023-01-26T05:06:13;17.60;46.20
44863;DHT22;30597;49.628;10.850;2023-01-26T05:08:39;17.50;46.10
44863;DHT22;30597;49.628;10.850;2023-01-26T05:11:05;17.60;46.00
44863;DHT22;30597;49.628;10.850;2023-01-26T05:13:31;17.60;46.00
44863;DHT22;30597;49.628;10.850;2023-01-26T05:15:57;17.70;46.10
44863;DHT22;30597;49.628;10.850;2023-01-26T05:18:23;17.80;45.90
44863;DHT22;30597;49.628;10.850;2023-01-26T05:20:48;17.70;45.80
44863;DHT22;30597;49.628;10.850;2023-01-26T05:23:14;17.80;45.90
44863;DHT22;30597;49.628;10.850;2023-01-26T05:25:40;17.80;45.90
44863;DHT22;30597;49.628;10.850;2023-01-26T05:28:06;17.90;46.00
44863;DHT22;30597;49.628;10.850;2023-01-26T05:30:32;18.00;45.80
44863;DHT22;30597;49.628;10.850;2023-01-26T05:33:05;18.00;45.70
44863;DHT22;30597;49.628;10.850;2023-01-26T05:35:31;18.00;45.80
44863;DHT22;30597;49.628;10.850;2023-01-26T05:37:57;18.00;45.60
44863;DHT22;30597;49.628;10.850;2023-01-26T05:40:23;18.10;45.60
44863;DHT22;30597;49.628;10.850;2023-01-26T05:42:50;18.20;45.80
44863;DHT22;30597;49.628;10.850;2023-01-26T05:45:20;18.20;45.80
44863;DHT22;30597;49.628;10.850;2023-01-26T05:47:46;18.30;45.70
44863;DHT22;30597;49.628;10.850;2023-01-26T05:50:14;18.30;45.50
44863;DHT22;30597;49.628;10.850;2023-01-26T05:52:41;18.30;45.60
44863;DHT22;30597;49.628;10.850;2023-01-26T05:55:08;18.30;45.50
44863;DHT22;30597;49.628;10.850;2023-01-26T05:57:33;18.30;45.50
44863;DHT22;30597;49.628;10.850;2023-01-26T05:59:59;18.40;45.40
44863;DHT22;30597;49.628;10.850;2023-01-26T06:02:25;18.30;45.40
44863;DHT22;30597;49.628;10.850;2023-01-26T06:04:53;18.20;45.40
44863;DHT22;30597;49.628;10.850;2023-01-26T06:07:19;18.20;45.50
44863;DHT22;30597;49.628;10.850;2023-01-26T06:09:45;18.10;45.50
44863;DHT22;30597;49.628;10.850;2023-01-26T06:12:17;18.10;45.70
44863;DHT22;30597;49.628;10.850;2023-01-26T06:14:43;18.00;45.80
44863;DHT22;30597;49.628;10.850;2023-01-26T06:17:09;18.00;45.80
44863;DHT22;30597;49.628;10.850;2023-01-26T06:19:34;18.00;45.90
44863;DHT22;30597;49.628;10.850;2023-01-26T06:22:01;17.90;46.00
44863;DHT22;30597;49.628;10.850;2023-01-26T06:24:27;17.80;46.00
44863;DHT22;30597;49.628;10.850;2023-01-26T06:26:52;17.80;46.10
44863;DHT22;30597;49.628;10.850;2023-01-26T06:29:18;17.80;46.20
44863;DHT22;30597;49.628;10.850;2023-01-26T06:31:43;17.70;46.20
44863;DHT22;30597;49.628;10.850;2023-01-26T06:34:09;17.60;46.30
44863;DHT22;30597;49.628;10.850;2023-01-26T06:36:35;17.60;46.20
44863;DHT22;30597;49.628;10.850;2023-01-26T06:39:01;17.60;46.40
44863;DHT22;30597;49.628;10.850;2023-01-26T06:41:27;17.50;46.30
44863;DHT22;30597;49.628;10.850;2023-01-26T06:43:53;17.50;46.40
44863;DHT22;30597;49.628;10.850;2023-01-26T06:46:18;17.50;46.60
44863;DHT22;30597;49.628;10.850;2023-01-26T06:48:45;17.60;46.50
44863;DHT22;30597;49.628;10.850;2023-01-26T06:53:53;17.60;46.40
44863;DHT22;30597;49.628;10.850;2023-01-26T06:56:20;17.50;46.40
44863;DHT22;30597;49.628;10.850;2023-01-26T06:58:46;17.50;46.40
44863;DHT22;30597;49.628;10.850;2023-01-26T07:01:17;17.50;46.50
44863;DHT22;30597;49.628;10.850;2023-01-26T07:03:43;17.40;46.40
44863;DHT22;30597;49.628;10.850;2023-01-26T07:06:09;17.50;46.30
44863;DHT22;30597;49.628;10.850;2023-01-26T07:08:38;17.50;46.40
44863;DHT22;30597;49.628;10.850;2023-01-26T07:11:05;17.70;46.30
44863;DHT22;30597;49.628;10.850;2023-01-26T07:13:31;17.80;46.20
44863;DHT22;30597;49.628;10.850;2023-01-26T07:16:05;18.00;46.10
44863;DHT22;30597;49.628;10.850;2023-01-26T07:18:31;18.10;45.80
44863;DHT22;30597;49.628;10.850;2023-01-26T07:21:11;18.20;45.60
44863;DHT22;30597;49.628;10.850;2023-01-26T07:23:37;18.30;45.50
44863;DHT22;30597;49.628;10.850;2023-01-26T07:26:04;18.40;45.30
44863;DHT22;30597;49.628;10.850;2023-01-26T07:28:30;18.50;45.30
44863;DHT22;30597;49.628;10.850;2023-01-26T07:30:59;18.50;45.00
44863;DHT22;30597;49.628;10.850;2023-01-26T07:33:27;18.60;45.10
44863;DHT22;30597;49.628;10.850;2023-01-26T07:35:53;18.60;45.00
44863;DHT22;30597;49.628;10.850;2023-01-26T07:38:19;18.70;45.00
44863;DHT22;30597;49.628;10.850;2023-01-26T07:40:45;18.70;44.70
44863;DHT22;30597;49.628;10.850;2023-01-26T07:43:12;18.80;44.80
44863;DHT22;30597;49.628;10.850;2023-01-26T07:45:39;18.80;44.70
44863;DHT22;30597;49.628;10.850;2023-01-26T07:48:05;18.90;44.60
44863;DHT22;30597;49.628;10.850;2023-01-26T07:50:30;18.90;44.40
44863;DHT22;30597;49.628;10.850;2023-01-26T07:52:59;18.90;44.50
44863;DHT22;30597;49.628;10.850;2023-01-26T07:55:25;18.90;44.40
44863;DHT22;30597;49.628;10.850;2023-01-26T07:57:51;19.00;44.40
44863;DHT22;30597;49.628;10.850;2023-01-26T08:00:17;19.00;44.40
44863;DHT22;30597;49.628;10.850;2023-01-26T08:02:43;19.00;44.50
44863;DHT22;30597;49.628;10.850;2023-01-26T08:05:09;19.00;44.30
44863;DHT22;30597;49.628;10.850;2023-01-26T08:07:34;19.00;44.40
44863;DHT22;30597;49.628;10.850;2023-01-26T08:10:00;19.10;44.30
44863;DHT22;30597;49.628;10.850;2023-01-26T08:12:26;19.00;44.10
44863;DHT22;30597;49.628;10.850;2023-01-26T08:14:52;19.10;44.30
44863;DHT22;30597;49.628;10.850;2023-01-26T08:17:18;19.10;44.20
44863;DHT22;30597;49.628;10.850;2023-01-26T08:19:44;19.20;44.10
44863;DHT22;30597;49.628;10.850;2023-01-26T08:22:11;19.10;44.20
44863;DHT22;30597;49.628;10.850;2023-01-26T08:24:36;19.20;44.10
44863;DHT22;30597;49.628;10.850;2023-01-26T08:27:02;19.30;44.00
44863;DHT22;30597;49.628;10.850;2023-01-26T08:29:28;19.30;43.90
44863;DHT22;30597;49.628;10.850;2023-01-26T08:31:53;19.30;43.90
44863;DHT22;30597;49.628;10.850;2023-01-26T08:34:19;19.30;43.90
44863;DHT22;30597;49.628;10.850;2023-01-26T08:36:47;19.30;44.00
44863;DHT22;30597;49.628;10.850;2023-01-26T08:39:12;19.40;44.10
44863;DHT22;30597;49.628;10.850;2023-01-26T08:41:38;19.40;44.00
44863;DHT22;30597;49.628;10.850;2023-01-26T08:44:08;19.40;43.60
44863;DHT22;30597;49.628;10.850;2023-01-26T08:46:34;19.40;44.10
44863;DHT22;30597;49.628;10.850;2023-01-26T08:49:00;19.40;43.70
44863;DHT22;30597;49.628;10.850;2023-01-26T08:51:25;19.40;43.80
44863;DHT22;30597;49.628;10.850;2023-01-26T08:53:51;19.40;44.00
44863;DHT22;30597;49.628;10.850;2023-01-26T08:56:19;19.40;44.00
44863;DHT22;30597;49.628;10.850;2023-01-26T08:58:44;19.50;44.00
44863;DHT22;30597;49.628;10.850;2023-01-26T09:01:12;19.40;44.00
44863;DHT22;30597;49.628;10.850;2023-01-26T09:03:38;19.50;44.10
44863;DHT22;30597;49.628;10.850;2023-01-26T09:06:05;19.50;43.90
44863;DHT22;30597;49.628;10.850;2023-01-26T09:08:31;19.50;44.00
44863;DHT22;30597;49.628;10.850;2023-01-26T09:10:57;19.50;44.30
44863;DHT22;30597;49.628;10.850;2023-01-26T09:13:23;19.60;43.80
44863;DHT22;30597;49.628;10.850;2023-01-26T09:15:49;19.60;43.70
44863;DHT22;30597;49.628;10.850;2023-01-26T09:18:15;19.60;43.80
44863;DHT22;30597;49.628;10.850;2023-01-26T09:20:40;19.60;43.60
44863;DHT22;30597;49.628;10.850;2023-01-26T09:23:06;19.60;43.60
44863;DHT22;30597;49.628;10.850;2023-01-26T09:25:35;19.60;43.70
44863;DHT22;30597;49.628;10.850;2023-01-26T09:28:02;19.60;43.70
44863;DHT22;30597;49.628;10.850;2023-01-26T09:30:27;19.60;43.50
44863;DHT22;30597;49.628;10.850;2023-01-26T09:32:58;19.60;43.50
44863;DHT22;30597;49.628;10.850;2023-01-26T09:35:24;19.60;43.70
44863;DHT22;30597;49.628;10.850;2023-01-26T09:37:50;19.70;43.70
44863;DHT22;30597;49.628;10.850;2023-01-26T09:40:20;19.70;43.40
44863;DHT22;30597;49.628;10.850;2023-01-26T09:45:45;19.70;43.50
44863;DHT22;30597;49.628;10.850;2023-01-26T09:51:13;19.80;43.70
44863;DHT22;30597;49.628;10.850;2023-01-26T09:53:44;19.80;43.60
44863;DHT22;30597;49.628;10.850;2023-01-26T09:56:19;19.80;43.60
44863;DHT22;30597;49.628;10.850;2023-01-26T09:59:03;19.80;44.10
44863;DHT22;30597;49.628;10.850;2023-01-26T10:01:49;19.80;43.50
44863;DHT22;30597;49.628;10.850;2023-01-26T10:04:34;19.80;43.50
44863;DHT22;30597;49.628;10.850;2023-01-26T10:07:10;19.80;43.50
44863;DHT22;30597;49.628;10.850;2023-01-26T10:09:37;19.90;43.60
44863;DHT22;30597;49.628;10.850;2023-01-26T10:12:15;19.90;43.50
44863;DHT22;30597;49.628;10.850;2023-01-26T10:14:51;19.90;43.40
44863;DHT22;30597;49.628;10.850;2023-01-26T10:17:32;19.90;43.40
44863;DHT22;30597;49.628;10.850;2023-01-26T10:20:04;19.90;43.40
44863;DHT22;30597;49.628;10.850;2023-01-26T10:22:43;20.00;43.40
44863;DHT22;30597;49.628;10.850;2023-01-26T10:25:16;20.00;43.30
44863;DHT22;30597;49.628;10.850;2023-01-26T10:27:43;20.00;43.30
44863;DHT22;30597;49.628;10.850;2023-01-26T10:30:18;20.00;43.30
44863;DHT22;30597;49.628;10.850;2023-01-26T10:32:46;20.00;43.30
44863;DHT22;30597;49.628;10.850;2023-01-26T10:35:21;20.00;43.20
44863;DHT22;30597;49.628;10.850;2023-01-26T10:37:47;20.00;43.40
44863;DHT22;30597;49.628;10.850;2023-01-26T10:40:13;20.00;43.00
44863;DHT22;30597;49.628;10.850;2023-01-26T10:42:39;20.00;43.10
44863;DHT22;30597;49.628;10.850;2023-01-26T10:48:19;20.00;43.10
44863;DHT22;30597;49.628;10.850;2023-01-26T10:50:46;20.10;43.30
44863;DHT22;30597;49.628;10.850;2023-01-26T10:53:25;20.00;43.20
44863;DHT22;30597;49.628;10.850;2023-01-26T10:58:54;20.10;43.20
44863;DHT22;30597;49.628;10.850;2023-01-26T11:01:22;20.10;43.30
44863;DHT22;30597;49.628;10.850;2023-01-26T11:04:08;20.10;43.80
44863;DHT22;30597;49.628;10.850;2023-01-26T11:06:36;20.10;43.20
44863;DHT22;30597;49.628;10.850;2023-01-26T11:09:27;20.10;43.20
44863;DHT22;30597;49.628;10.850;2023-01-26T11:12:01;20.20;43.20
44863;DHT22;30597;49.628;10.850;2023-01-26T11:14:28;20.20;43.20
44863;DHT22;30597;49.628;10.850;2023-01-26T11:16:59;20.20;43.10
44863;DHT22;30597;49.628;10.850;2023-01-26T11:19:49;20.20;43.10
44863;DHT22;30597;49.628;10.850;2023-01-26T11:22:32;20.20;43.10
44863;DHT22;30597;49.628;10.850;2023-01-26T11:25:19;20.20;43.10
44863;DHT22;30597;49.628;10.850;2023-01-26T11:28:16;20.20;43.10
44863;DHT22;30597;49.628;10.850;2023-01-26T11:34:00;20.30;43.20
44863;DHT22;30597;49.628;10.850;2023-01-26T11:36:27;20.30;43.20
44863;DHT22;30597;49.628;10.850;2023-01-26T11:49:48;20.30;43.10
44863;DHT22;30597;49.628;10.850;2023-01-26T11:55:22;20.30;43.10
44863;DHT22;30597;49.628;10.850;2023-01-26T12:00:44;20.40;42.90
44863;DHT22;30597;49.628;10.850;2023-01-26T12:03:37;20.30;43.00
44863;DHT22;30597;49.628;10.850;2023-01-26T12:06:15;20.30;43.10
44863;DHT22;30597;49.628;10.850;2023-01-26T12:09:02;20.30;43.10
44863;DHT22;30597;49.628;10.850;2023-01-26T12:11:34;20.30;43.10
44863;DHT22;30597;49.628;10.850;2023-01-26T12:16:57;20.30;43.10
44863;DHT22;30597;49.628;10.850;2023-01-26T12:22:08;20.30;43.00
44863;DHT22;30597;49.628;10.850;2023-01-26T12:24:47;20.30;42.90
44863;DHT22;30597;49.628;10.850;2023-01-26T12:27:30;20.30;43.00
44863;DHT22;30597;49.628;10.850;2023-01-26T12:30:18;20.40;43.10
44863;DHT22;30597;49.628;10.850;2023-01-26T12:32:46;20.30;43.00
44863;DHT22;30597;49.628;10.850;2023-01-26T12:35:12;20.30;42.90
44863;DHT22;30597;49.628;10.850;2023-01-26T12:37:53;20.30;42.90
44863;DHT22;30597;49.628;10.850;2023-01-26T12:45:55;20.30;43.10
44863;DHT22;30597;49.628;10.850;2023-01-26T12:48:28;20.30;43.40
44863;DHT22;30597;49.628;10.850;2023-01-26T12:51:07;20.30;43.30
44863;DHT22;30597;49.628;10.850;2023-01-26T12:53:58;20.30;43.30
44863;DHT22;30597;49.628;10.850;2023-01-26T12:56:39;20.30;43.30
44863;DHT22;30597;49.628;10.850;2023-01-26T12:59:23;20.30;43.40
44863;DHT22;30597;49.628;10.850;2023-01-26T13:01:51;20.30;43.40
44863;DHT22;30597;49.628;10.850;2023-01-26T13:04:16;20.30;43.20
44863;DHT22;30597;49.628;10.850;2023-01-26T13:06:42;20.30;43.20
44863;DHT22;30597;49.628;10.850;2023-01-26T13:09:25;20.30;43.10
44863;DHT22;30597;49.628;10.850;2023-01-26T13:11:58;20.30;43.40
44863;DHT22;30597;49.628;10.850;2023-01-26T13:14:37;20.30;43.20
44863;DHT22;30597;49.628;10.850;2023-01-26T13:24:49;20.30;43.40
44863;DHT22;30597;49.628;10.850;2023-01-26T13:35:17;20.30;43.30
44863;DHT22;30597;49.628;10.850;2023-01-26T13:37:52;20.30;43.50
44863;DHT22;30597;49.628;10.850;2023-01-26T13:40:39;20.30;43.50
44863;DHT22;30597;49.628;10.850;2023-01-26T13:43:20;20.30;43.40
44863;DHT22;30597;49.628;10.850;2023-01-26T13:48:50;20.30;43.60
44863;DHT22;30597;49.628;10.850;2023-01-26T13:51:21;20.30;43.60
44863;DHT22;30597;49.628;10.850;2023-01-26T13:53:56;20.20;43.60
44863;DHT22;30597;49.628;10.850;2023-01-26T13:56:28;20.20;43.70
44863;DHT22;30597;49.628;10.850;2023-01-26T13:59:07;20.10;43.70
44863;DHT22;30597;49.628;10.850;2023-01-26T14:01:35;20.10;43.80
44863;DHT22;30597;49.628;10.850;2023-01-26T14:04:06;20.00;43.80
44863;DHT22;30597;49.628;10.850;2023-01-26T14:06:33;19.90;43.90
44863;DHT22;30597;49.628;10.850;2023-01-26T14:09:02;19.90;44.00
44863;DHT22;30597;49.628;10.850;2023-01-26T14:11:31;19.80;44.10
44863;DHT22;30597;49.628;10.850;2023-01-26T14:13:59;19.70;44.20
44863;DHT22;30597;49.628;10.850;2023-01-26T14:16:31;19.60;44.30
44863;DHT22;30597;49.628;10.850;2023-01-26T14:21:30;19.70;44.30
44863;DHT22;30597;49.628;10.850;2023-01-26T14:23:57;19.80;44.30
44863;DHT22;30597;49.628;10.850;2023-01-26T14:28:51;19.90;44.30
44863;DHT22;30597;49.628;10.850;2023-01-26T14:31:25;20.00;44.00
44863;DHT22;30597;49.628;10.850;2023-01-26T14:33:52;20.00;44.10
44863;DHT22;30597;49.628;10.850;2023-01-26T14:36:22;20.10;44.10
44863;DHT22;30597;49.628;10.850;2023-01-26T14:38:51;20.10;44.00
44863;DHT22;30597;49.628;10.850;2023-01-26T14:43:53;20.20;43.80
44863;DHT22;30597;49.628;10.850;2023-01-26T14:46:24;20.30;43.90
44863;DHT22;30597;49.628;10.850;2023-01-26T14:49:07;20.30;43.70
44863;DHT22;30597;49.628;10.850;2023-01-26T14:51:36;20.30;43.60
44863;DHT22;30597;49.628;10.850;2023-01-26T14:54:31;20.30;43.50
44863;DHT22;30597;49.628;10.850;2023-01-26T14:56:58;20.30;43.50
44863;DHT22;30597;49.628;10.850;2023-01-26T14:59:38;20.30;43.50
44863;DHT22;30597;49.628;10.850;2023-01-26T15:02:16;20.30;44.20
44863;DHT22;30597;49.628;10.850;2023-01-26T15:04:56;20.30;43.50
44863;DHT22;30597;49.628;10.850;2023-01-26T15:15:22;20.30;43.40
44863;DHT22;30597;49.628;10.850;2023-01-26T15:18:04;20.30;43.50
44863;DHT22;30597;49.628;10.850;2023-01-26T15:22:55;20.30;43.40
44863;DHT22;30597;49.628;10.850;2023-01-26T15:25:23;20.20;43.40
44863;DHT22;30597;49.628;10.850;2023-01-26T15:30:29;20.10;43.80
44863;DHT22;30597;49.628;10.850;2023-01-26T15:32:56;20.10;44.00
44863;DHT22;30597;49.628;10.850;2023-01-26T15:38:11;19.80;44.00
44863;DHT22;30597;49.628;10.850;2023-01-26T15:40:38;19.80;44.30
44863;DHT22;30597;49.628;10.850;2023-01-26T15:43:09;19.70;44.30
44863;DHT22;30597;49.628;10.850;2023-01-26T15:45:34;19.60;44.40
44863;DHT22;30597;49.628;10.850;2023-01-26T15:48:00;19.60;44.50
44863;DHT22;30597;49.628;10.850;2023-01-26T15:50:26;19.60;44.60
44863;DHT22;30597;49.628;10.850;2023-01-26T15:52:52;19.60;44.60
44863;DHT22;30597;49.628;10.850;2023-01-26T15:55:25;19.70;44.60
44863;DHT22;30597;49.628;10.850;2023-01-26T15:57:50;19.70;44.60
44863;DHT22;30597;49.628;10.850;2023-01-26T16:00:16;19.80;44.30
44863;DHT22;30597;49.628;10.850;2023-01-26T16:02:42;19.90;44.30
44863;DHT22;30597;49.628;10.850;2023-01-26T16:05:18;20.00;44.40
44863;DHT22;30597;49.628;10.850;2023-01-26T16:07:43;20.00;44.30
44863;DHT22;30597;49.628;10.850;2023-01-26T16:10:09;20.10;44.10
44863;DHT22;30597;49.628;10.850;2023-01-26T16:12:35;20.10;44.00
44863;DHT22;30597;49.628;10.850;2023-01-26T16:15:00;20.20;44.00
44863;DHT22;30597;49.628;10.850;2023-01-26T16:17:26;20.20;43.80
44863;DHT22;30597;49.628;10.850;2023-01-26T16:19:52;20.20;43.80
44863;DHT22;30597;49.628;10.850;2023-01-26T16:22:18;20.20;43.80
44863;DHT22;30597;49.628;10.850;2023-01-26T16:24:43;20.20;44.00
44863;DHT22;30597;49.628;10.850;2023-01-26T16:27:10;20.20;44.00
44863;DHT22;30597;49.628;10.850;2023-01-26T16:29:36;20.30;43.80
44863;DHT22;30597;49.628;10.850;2023-01-26T16:32:14;20.20;43.80
44863;DHT22;30597;49.628;10.850;2023-01-26T16:34:46;20.20;44.00
44863;DHT22;30597;49.628;10.850;2023-01-26T16:37:12;20.20;43.70
44863;DHT22;30597;49.628;10.850;2023-01-26T16:39:37;20.20;43.80
44863;DHT22;30597;49.628;10.850;2023-01-26T16:42:03;20.30;43.70
44863;DHT22;30597;49.628;10.850;2023-01-26T16:44:29;20.20;43.80
44863;DHT22;30597;49.628;10.850;2023-01-26T16:46:54;20.30;43.90
44863;DHT22;30597;49.628;10.850;2023-01-26T16:49:20;20.20;43.70
44863;DHT22;30597;49.628;10.850;2023-01-26T16:51:45;20.20;43.90
44863;DHT22;30597;49.628;10.850;2023-01-26T16:54:11;20.20;43.90
44863;DHT22;30597;49.628;10.850;2023-01-26T16:56:37;20.20;43.80
44863;DHT22;30597;49.628;10.850;2023-01-26T16:59:02;20.10;43.90
44863;DHT22;30597;49.628;10.850;2023-01-26T17:01:32;20.00;43.90
44863;DHT22;30597;49.628;10.850;2023-01-26T17:03:59;19.90;44.20
44863;DHT22;30597;49.628;10.850;2023-01-26T17:06:26;19.80;44.10